Denali National Park, AK (99755)

6:08 PM AKDT on July 27, 2016 (GMT -0800)
Minchumina | | Change Station

Elev 702 ft 63.89 °N, 152.30 °W | Updated 12 minutes ago

Scattered Clouds
Scattered Clouds
73 °F
Feels Like 73 °F
N
0
Wind Variable Wind from North

Today
High -- | Low -- °F
--% Chance of Precip.
Yesterday
High -- | Low -- °F
Precip. -- in
Pressure 29.78 in
Visibility 10.0 miles
Clouds Few 7000 ft
Scattered Clouds 9000 ft
Dew Point 50 °F
Humidity 44%
Rainfall 0.00 in
Snow Depth Not available.
5:02 AM 11:15 PM
Last Quarter, 37% visible
METAR PAMH 280156Z AUTO 00000KT 10SM FEW070 SCT090 23/10 A2978 RMK AO1
Pressure 29.78 in
Visibility 10.0 miles
Clouds Few 7000 ft
Scattered Clouds 9000 ft
Dew Point 50 °F
Humidity 44%
Rainfall 0.00 in
Snow Depth Not available.
5:02 AM 11:15 PM
Last Quarter, 37% visible
METAR PAMH 280156Z AUTO 00000KT 10SM FEW070 SCT090 23/10 A2978 RMK AO1

10-Day Weather Forecast

Almanac

Astronomy

Jul. 27, 2016 Rise Set
Actual Time
Civil Twilight
Nautical Twilight
Astronomical Twilight
Moon
Length of Visible Light
Length of Day
Tomorrow will be .
, % of the Moon is Illuminated

Today's Extremes

State Highs State Lows

Community

WunderPhotos

Upload Photos

1,928,008 photos uploaded!

WunderBlog® & News

Nearby

Air Quality

  Air Quality AQ Index Pollutant
Not available.

Snow Depth

Station Depth Elevation

Earthquake Activity

City Distance Mag. Time & Date
Minimum magnitude displayed is 2.5.

Coastal Water Temperatures

Place Temperature

Stations

Nearby Weather Stations

Station Location Temp. Windchill Dew Point Humidity Wind Precip. Elev Updated Type
                   

Watches & Warnings

There are currently no watches in effect.